Time,TemperatureF,DewpointF,PressureIn,WindDirection,WindDirectionDegrees,WindSpeedMPH,WindSpeedGustMPH,Humidity,HourlyPrecipIn,Conditions,Clouds,dailyrainin,SoftwareType,DateUTC
2013-01-07 00:02:00,38.7,5.0,29.96,WNW,287,12.3,12.3,24,0.00,,,0.00,VWS V14.01,2013-01-07 08:02:00,
2013-01-07 00:07:00,38.7,5.0,29.96,WNW,287,12.3,12.3,24,0.00,,,0.00,VWS V14.01,2013-01-07 08:07:00,
2013-01-07 00:12:00,39.2,4.5,29.96,WNW,287,12.3,12.3,23,0.00,,,0.00,VWS V14.01,2013-01-07 08:12:00,
2013-01-07 00:17:00,40.5,5.6,29.96,WNW,287,12.3,12.3,23,0.00,,,0.00,VWS V14.01,2013-01-07 08:17:00,
2013-01-07 00:22:00,40.5,5.6,29.96,WNW,287,12.3,12.3,23,0.00,,,0.00,VWS V14.01,2013-01-07 08:22:00,
2013-01-07 00:27:00,40.1,5.3,29.96,NW,318,8.7,8.7,23,0.00,,,0.00,VWS V14.01,2013-01-07 08:27:00,
2013-01-07 00:32:00,39.6,4.8,29.96,NW,318,8.7,8.7,23,0.00,,,0.00,VWS V14.01,2013-01-07 08:32:00,
2013-01-07 00:37:00,39.4,4.7,29.96,NW,318,8.7,8.7,23,0.00,,,0.00,VWS V14.01,2013-01-07 08:37:00,
2013-01-07 00:42:00,39.2,4.5,29.96,NW,318,8.7,8.7,23,0.00,,,0.00,VWS V14.01,2013-01-07 08:42:00,
2013-01-07 00:47:00,39.7,5.0,29.96,NW,318,8.7,8.7,23,0.00,,,0.00,VWS V14.01,2013-01-07 08:47:00,
2013-01-07 00:51:00,39.9,5.1,29.96,NW,318,8.7,8.7,23,0.00,,,0.00,VWS V14.01,2013-01-07 08:51:00,
2013-01-07 00:56:00,39.9,5.1,29.96,NW,318,8.7,8.7,23,0.00,,,0.00,VWS V14.01,2013-01-07 08:56:00,
2013-01-07 01:01:00,39.9,5.1,29.96,WNW,298,10.5,10.5,23,0.00,,,0.00,VWS V14.01,2013-01-07 09:01:00,
2013-01-07 01:06:00,40.1,5.3,29.96,WNW,298,10.5,10.5,23,0.00,,,0.00,VWS V14.01,2013-01-07 09:06:00,
2013-01-07 01:11:00,40.6,5.8,29.96,WNW,293,12.3,12.3,23,0.00,,,0.00,VWS V14.01,2013-01-07 09:11:00,
2013-01-07 01:16:00,40.8,5.9,29.96,WNW,293,12.3,12.3,23,0.00,,,0.00,VWS V14.01,2013-01-07 09:16:00,
2013-01-07 01:21:00,41.4,6.4,29.96,WNW,293,12.3,12.3,23,0.00,,,0.00,VWS V14.01,2013-01-07 09:21:00,
2013-01-07 01:26:00,43.0,7.7,29.96,NW,319,4.0,4.0,23,0.00,,,0.00,VWS V14.01,2013-01-07 09:26:00,
2013-01-07 01:31:00,43.7,8.3,29.96,NNE,32,4.9,4.9,23,0.00,,,0.00,VWS V14.01,2013-01-07 09:31:00,
2013-01-07 01:36:00,44.1,8.6,29.96,NNE,32,4.9,4.9,23,0.00,,,0.00,VWS V14.01,2013-01-07 09:36:00,
2013-01-07 01:41:00,44.1,8.6,29.96,NNE,16,0.0,0.0,23,0.00,,,0.00,VWS V14.01,2013-01-07 09:41:00,
2013-01-07 01:46:00,44.1,8.6,29.96,WNW,289,5.4,5.4,23,0.00,,,0.00,VWS V14.01,2013-01-07 09:46:00,
2013-01-07 01:51:00,43.3,8.0,29.96,WNW,289,5.4,5.4,23,0.00,,,0.00,VWS V14.01,2013-01-07 09:51:00,
2013-01-07 01:56:00,43.3,8.0,29.96,WSW,250,0.0,0.0,23,0.00,,,0.00,VWS V14.01,2013-01-07 09:56:00,
2013-01-07 02:01:00,43.3,8.0,29.96,WSW,256,5.8,5.8,23,0.00,,,0.00,VWS V14.01,2013-01-07 10:01:00,
2013-01-07 02:06:00,42.8,7.6,29.96,WSW,256,5.8,5.8,23,0.00,,,0.00,VWS V14.01,2013-01-07 10:06:00,
2013-01-07 02:11:00,42.3,7.1,29.96,WNW,284,10.1,10.1,23,0.00,,,0.00,VWS V14.01,2013-01-07 10:11:00,
2013-01-07 02:16:00,41.7,6.7,29.96,WNW,284,10.1,10.1,23,0.00,,,0.00,VWS V14.01,2013-01-07 10:16:00,
2013-01-07 02:21:00,41.2,6.2,29.96,NW,318,8.1,8.1,23,0.00,,,0.00,VWS V14.01,2013-01-07 10:21:00,
2013-01-07 02:26:00,41.0,6.1,29.96,NW,304,7.6,7.6,23,0.00,,,0.00,VWS V14.01,2013-01-07 10:26:00,
2013-01-07 02:31:00,41.0,6.1,29.96,WNW,291,6.3,8.7,23,0.00,,,0.00,VWS V14.01,2013-01-07 10:31:00,
2013-01-07 02:36:00,41.0,6.1,29.96,WNW,302,10.5,10.5,23,0.00,,,0.00,VWS V14.01,2013-01-07 10:36:00,
2013-01-07 02:41:00,40.6,5.8,29.96,NW,308,8.7,11.0,23,0.00,,,0.00,VWS V14.01,2013-01-07 10:41:00,
2013-01-07 02:46:00,40.6,5.8,29.96,NW,311,10.5,11.0,23,0.00,,,0.00,VWS V14.01,2013-01-07 10:46:00,
2013-01-07 02:51:00,40.6,5.8,29.96,WNW,293,8.1,10.1,23,0.00,,,0.00,VWS V14.01,2013-01-07 10:51:00,
2013-01-07 02:56:00,41.0,6.1,29.96,NW,321,11.0,11.0,23,0.00,,,0.00,VWS V14.01,2013-01-07 10:56:00,
2013-01-07 03:01:00,41.2,6.2,29.96,WNW,297,10.1,10.1,23,0.00,,,0.00,VWS V14.01,2013-01-07 11:01:00,
2013-01-07 03:06:00,41.2,6.2,29.96,WNW,302,12.3,12.3,23,0.00,,,0.00,VWS V14.01,2013-01-07 11:06:00,
2013-01-07 03:11:00,41.2,6.2,29.96,NW,306,10.1,11.0,23,0.00,,,0.00,VWS V14.01,2013-01-07 11:11:00,
2013-01-07 03:16:00,41.2,6.2,29.96,NW,311,12.3,12.8,23,0.00,,,0.00,VWS V14.01,2013-01-07 11:16:00,
2013-01-07 03:21:00,41.4,6.4,29.96,NW,314,12.8,12.8,23,0.00,,,0.00,VWS V14.01,2013-01-07 11:21:00,
2013-01-07 03:26:00,41.5,6.5,29.96,NW,314,13.2,13.2,23,0.00,,,0.00,VWS V14.01,2013-01-07 11:26:00,
2013-01-07 03:31:00,41.7,6.7,29.96,WNW,299,10.1,13.2,23,0.00,,,0.00,VWS V14.01,2013-01-07 11:31:00,
2013-01-07 03:36:00,41.7,6.7,29.96,NW,315,14.5,14.5,23,0.00,,,0.00,VWS V14.01,2013-01-07 11:36:00,
2013-01-07 03:41:00,41.9,6.8,29.96,NW,311,12.8,15.0,23,0.00,,,0.00,VWS V14.01,2013-01-07 11:41:00,
2013-01-07 03:46:00,42.1,7.0,29.96,WNW,285,13.2,15.0,23,0.00,,,0.00,VWS V14.01,2013-01-07 11:46:00,
2013-01-07 03:51:00,42.3,7.1,29.96,WNW,301,12.8,17.4,23,0.00,,,0.00,VWS V14.01,2013-01-07 11:51:00,
2013-01-07 03:56:00,42.3,7.1,29.96,NW,318,12.3,12.3,23,0.00,,,0.00,VWS V14.01,2013-01-07 11:56:00,
2013-01-07 04:01:00,42.3,7.1,29.96,WNW,294,10.5,14.1,23,0.00,,OVC140,0.00,VWS V14.01,2013-01-07 12:01:00,
2013-01-07 04:06:00,42.1,7.0,29.93,NW,304,16.3,17.9,23,0.00,,OVC140,0.00,VWS V14.01,2013-01-07 12:06:00,
2013-01-07 04:11:00,41.9,6.8,29.93,West,277,19.7,19.7,23,0.00,,OVC140,0.00,VWS V14.01,2013-01-07 12:11:00,
2013-01-07 04:16:00,40.8,5.9,29.93,NW,312,17.4,17.4,23,0.00,,OVC140,0.00,VWS V14.01,2013-01-07 12:16:00,
2013-01-07 04:21:00,39.9,5.1,29.96,West,281,17.9,17.9,23,0.00,,OVC140,0.00,VWS V14.01,2013-01-07 12:21:00,
2013-01-07 04:26:00,39.6,4.8,29.96,WSW,250,18.3,18.3,23,0.00,,OVC140,0.00,VWS V14.01,2013-01-07 12:26:00,
2013-01-07 04:31:00,39.7,5.0,29.96,NW,315,13.6,17.0,23,0.00,,OVC140,0.00,VWS V14.01,2013-01-07 12:31:00,
2013-01-07 04:36:00,39.9,5.1,29.96,NNW,328,19.2,19.7,23,0.00,,OVC140,0.00,VWS V14.01,2013-01-07 12:36:00,
2013-01-07 04:41:00,40.1,5.3,29.96,NW,318,15.0,15.0,23,0.00,,OVC140,0.00,VWS V14.01,2013-01-07 12:41:00,
2013-01-07 04:46:00,39.9,5.1,29.96,WNW,301,17.9,17.9,23,0.00,,OVC140,0.00,VWS V14.01,2013-01-07 12:46:00,
2013-01-07 04:51:00,39.9,5.1,29.96,NW,306,17.9,17.9,23,0.00,,OVC140,0.00,VWS V14.01,2013-01-07 12:51:00,
2013-01-07 04:56:00,40.5,5.6,29.96,NW,310,15.4,15.4,23,0.00,,OVC140,0.00,VWS V14.01,2013-01-07 12:56:00,
2013-01-07 05:01:00,40.8,5.9,29.96,WNW,300,15.4,15.4,23,0.00,,OVC140,0.00,VWS V14.01,2013-01-07 13:01:00,
2013-01-07 05:06:00,41.4,6.4,29.96,West,271,9.6,14.1,23,0.00,,OVC140,0.00,VWS V14.01,2013-01-07 13:06:00,
2013-01-07 05:11:00,41.7,6.7,29.96,NW,318,11.0,11.0,23,0.00,,OVC140,0.00,VWS V14.01,2013-01-07 13:11:00,
2013-01-07 05:16:00,42.1,7.0,29.96,NW,318,11.0,11.0,23,0.00,,OVC140,0.00,VWS V14.01,2013-01-07 13:16:00,
2013-01-07 05:21:00,42.4,7.3,29.96,NW,318,11.0,11.0,23,0.00,,OVC140,0.00,VWS V14.01,2013-01-07 13:21:00,
2013-01-07 05:26:00,42.6,7.4,29.96,NW,318,11.0,11.0,23,0.00,,OVC140,0.00,VWS V14.01,2013-01-07 13:26:00,
2013-01-07 05:31:00,42.4,7.3,29.96,NW,318,11.0,11.0,23,0.00,,OVC140,0.00,VWS V14.01,2013-01-07 13:31:00,
2013-01-07 05:36:00,42.4,7.3,29.96,NW,304,16.3,16.3,23,0.00,,OVC140,0.00,VWS V14.01,2013-01-07 13:36:00,
2013-01-07 05:41:00,42.6,7.4,29.96,WNW,287,22.8,22.8,23,0.00,,OVC140,0.00,VWS V14.01,2013-01-07 13:41:00,
2013-01-07 05:46:00,42.8,7.6,29.96,WNW,287,22.8,22.8,23,0.00,,OVC140,0.00,VWS V14.01,2013-01-07 13:46:00,
2013-01-07 05:51:00,42.8,7.6,29.96,NW,308,17.0,17.0,23,0.00,,OVC140,0.00,VWS V14.01,2013-01-07 13:51:00,
2013-01-07 05:56:00,42.8,7.6,29.96,NW,308,17.0,17.0,23,0.00,,OVC140,0.00,VWS V14.01,2013-01-07 13:56:00,
2013-01-07 06:01:00,42.6,7.4,29.96,NW,314,15.4,15.4,23,0.00,,OVC140,0.00,VWS V14.01,2013-01-07 14:01:00,
2013-01-07 06:06:00,42.4,7.3,29.96,NW,314,15.4,15.4,23,0.00,,OVC140,0.00,VWS V14.01,2013-01-07 14:06:00,
2013-01-07 06:11:00,42.4,7.3,29.96,NW,314,15.4,15.4,23,0.00,,OVC140,0.00,VWS V14.01,2013-01-07 14:11:00,
2013-01-07 06:16:00,42.1,7.0,29.96,NW,314,15.4,15.4,23,0.00,,OVC140,0.00,VWS V14.01,2013-01-07 14:16:00,
2013-01-07 06:21:00,41.9,6.8,29.96,West,278,10.5,10.5,23,0.00,,OVC140,0.00,VWS V14.01,2013-01-07 14:21:00,
2013-01-07 06:26:00,41.9,6.8,29.96,West,269,10.1,10.5,23,0.00,,OVC140,0.00,VWS V14.01,2013-01-07 14:26:00,
2013-01-07 06:31:00,41.5,6.5,29.96,WNW,286,13.2,13.2,23,0.00,,OVC140,0.00,VWS V14.01,2013-01-07 14:31:00,
2013-01-07 06:36:00,41.2,6.2,29.96,West,265,8.3,13.2,23,0.00,,OVC140,0.00,VWS V14.01,2013-01-07 14:36:00,
2013-01-07 06:41:00,41.2,6.2,29.96,WNW,286,16.8,17.4,23,0.00,,OVC140,0.00,VWS V14.01,2013-01-07 14:41:00,
2013-01-07 06:46:00,41.2,6.2,29.96,NW,324,12.8,16.8,23,0.00,,OVC140,0.00,VWS V14.01,2013-01-07 14:46:00,
2013-01-07 06:51:00,41.5,6.5,29.96,West,271,9.2,9.2,23,0.00,,OVC140,0.00,VWS V14.01,2013-01-07 14:51:00,
2013-01-07 06:56:00,41.7,6.7,29.96,NW,312,15.0,15.0,23,0.00,,OVC140,0.00,VWS V14.01,2013-01-07 14:56:00,
2013-01-07 07:01:00,41.5,6.5,29.96,NW,312,15.0,15.0,23,0.00,,OVC140,0.00,VWS V14.01,2013-01-07 15:01:00,
2013-01-07 07:06:00,41.5,6.5,29.96,NW,312,15.0,15.0,23,0.00,,OVC140,0.00,VWS V14.01,2013-01-07 15:06:00,
2013-01-07 07:11:00,41.7,6.7,29.96,NW,324,12.3,12.3,23,0.00,,OVC140,0.00,VWS V14.01,2013-01-07 15:11:00,
2013-01-07 07:16:00,41.9,6.8,29.96,NW,308,19.2,19.2,23,0.00,,OVC140,0.00,VWS V14.01,2013-01-07 15:16:00,
2013-01-07 07:21:00,41.7,6.7,29.96,WNW,301,16.3,16.3,23,0.00,,OVC140,0.00,VWS V14.01,2013-01-07 15:21:00,
2013-01-07 07:26:00,41.7,6.7,30.02,NW,305,15.9,23.3,23,0.00,,OVC140,0.00,VWS V14.01,2013-01-07 15:26:00,
2013-01-07 07:31:00,41.9,6.8,30.02,NW,310,19.2,21.5,23,0.00,,OVC140,0.00,VWS V14.01,2013-01-07 15:31:00,
2013-01-07 07:36:00,42.1,7.0,30.02,NW,307,15.4,15.4,23,0.00,,OVC140,0.00,VWS V14.01,2013-01-07 15:36:00,
2013-01-07 07:41:00,41.9,6.8,30.02,WNW,290,12.8,15.4,23,0.00,,OVC140,0.00,VWS V14.01,2013-01-07 15:41:00,
2013-01-07 07:46:00,41.7,6.7,30.02,WNW,300,11.0,13.2,23,0.00,,OVC140,0.00,VWS V14.01,2013-01-07 15:46:00,
2013-01-07 07:51:00,42.1,7.0,30.02,NW,304,13.2,17.0,23,0.00,,OVC140,0.00,VWS V14.01,2013-01-07 15:51:00,
2013-01-07 07:56:00,42.3,7.1,30.02,NW,312,15.4,15.4,23,0.00,,OVC140,0.00,VWS V14.01,2013-01-07 15:56:00,
2013-01-07 08:01:00,42.3,7.1,30.02,WNW,302,17.9,17.9,23,0.00,,FEW100,0.00,VWS V14.01,2013-01-07 16:01:00,
2013-01-07 08:06:00,42.4,7.3,30.02,WNW,293,15.4,15.4,23,0.00,,FEW100,0.00,VWS V14.01,2013-01-07 16:06:00,
2013-01-07 08:11:00,42.4,7.3,30.02,NW,311,14.1,14.1,23,0.00,,FEW100,0.00,VWS V14.01,2013-01-07 16:11:00,
2013-01-07 08:16:00,43.0,7.7,30.02,NW,308,11.0,14.5,23,0.00,,FEW100,0.00,VWS V14.01,2013-01-07 16:16:00,
2013-01-07 08:21:00,43.3,8.0,30.02,WNW,290,15.4,15.4,23,0.00,,FEW100,0.00,VWS V14.01,2013-01-07 16:21:00,
2013-01-07 08:25:00,43.7,8.3,30.02,WNW,301,13.2,15.9,23,0.00,,FEW100,0.00,VWS V14.01,2013-01-07 16:25:00,
2013-01-07 08:30:00,44.1,8.6,30.02,WNW,302,15.4,15.4,23,0.00,,FEW100,0.00,VWS V14.01,2013-01-07 16:30:00,
2013-01-07 08:35:00,44.6,8.1,30.02,NW,317,15.9,15.9,22,0.00,,FEW100,0.00,VWS V14.01,2013-01-07 16:35:00,
2013-01-07 08:40:00,45.1,8.6,30.02,NW,308,17.4,17.9,22,0.00,,FEW100,0.00,VWS V14.01,2013-01-07 16:40:00,
2013-01-07 08:45:00,45.7,9.0,30.02,NW,326,13.2,15.4,22,0.00,,FEW100,0.00,VWS V14.01,2013-01-07 16:45:00,
2013-01-07 08:50:00,46.4,9.6,30.02,NW,315,19.2,19.2,22,0.00,,FEW100,0.00,VWS V14.01,2013-01-07 16:50:00,
2013-01-07 08:55:00,46.8,9.9,30.02,NW,307,13.2,13.2,22,0.00,,FEW100,0.00,VWS V14.01,2013-01-07 16:55:00,
2013-01-07 09:00:00,47.5,10.6,30.02,NW,325,15.4,15.4,22,0.00,,FEW100,0.00,VWS V14.01,2013-01-07 17:00:00,
2013-01-07 09:05:00,48.0,11.0,30.05,NW,313,15.9,24.6,22,0.00,,FEW100,0.00,VWS V14.01,2013-01-07 17:05:00,
2013-01-07 09:10:00,48.4,10.3,30.05,NW,312,15.9,18.8,21,0.00,,FEW100,0.00,VWS V14.01,2013-01-07 17:10:00,
2013-01-07 09:15:00,48.7,10.6,30.05,NW,305,24.2,24.2,21,0.00,,FEW100,0.00,VWS V14.01,2013-01-07 17:15:00,
2013-01-07 09:20:00,49.5,11.2,30.05,NW,306,21.0,25.1,21,0.00,,FEW100,0.00,VWS V14.01,2013-01-07 17:20:00,
2013-01-07 09:25:00,49.8,11.5,30.05,NW,312,23.3,24.2,21,0.00,,FEW100,0.00,VWS V14.01,2013-01-07 17:25:00,
2013-01-07 09:30:00,50.2,11.8,30.05,NW,314,23.3,23.7,21,0.00,,FEW100,0.00,VWS V14.01,2013-01-07 17:30:00,
2013-01-07 09:35:00,50.4,11.9,30.05,NW,318,13.2,24.2,21,0.00,,FEW100,0.00,VWS V14.01,2013-01-07 17:35:00,
2013-01-07 09:40:00,50.4,11.9,30.05,WNW,303,22.8,30.2,21,0.00,,FEW100,0.00,VWS V14.01,2013-01-07 17:40:00,
2013-01-07 09:45:00,50.4,11.9,30.05,NW,310,19.7,26.2,21,0.00,,FEW100,0.00,VWS V14.01,2013-01-07 17:45:00,
2013-01-07 09:50:00,50.5,12.1,30.05,NNW,327,22.4,25.5,21,0.00,,FEW100,0.00,VWS V14.01,2013-01-07 17:50:00,
2013-01-07 09:55:00,50.7,12.2,30.05,WNW,296,27.5,27.5,21,0.00,,FEW100,0.00,VWS V14.01,2013-01-07 17:55:00,
2013-01-07 10:00:00,51.1,12.5,30.05,NW,318,19.7,24.2,21,0.00,,FEW100,0.00,VWS V14.01,2013-01-07 18:00:00,
2013-01-07 10:05:00,51.6,13.0,30.05,NW,317,11.0,15.4,21,0.00,,CLR,0.00,VWS V14.01,2013-01-07 18:05:00,
2013-01-07 10:10:00,52.0,13.3,30.05,WNW,301,15.4,17.4,21,0.00,,CLR,0.00,VWS V14.01,2013-01-07 18:10:00,
2013-01-07 10:15:00,52.3,13.6,30.05,NNW,338,13.2,15.4,21,0.00,,CLR,0.00,VWS V14.01,2013-01-07 18:15:00,
2013-01-07 10:20:00,52.7,13.9,30.08,North,353,15.4,15.4,21,0.00,,CLR,0.00,VWS V14.01,2013-01-07 18:20:00,
2013-01-07 10:25:00,53.2,14.3,30.08,NNW,329,17.0,17.0,21,0.00,,CLR,0.00,VWS V14.01,2013-01-07 18:25:00,
2013-01-07 10:30:00,53.1,14.2,30.08,NW,313,22.4,22.4,21,0.00,,CLR,0.00,VWS V14.01,2013-01-07 18:30:00,
2013-01-07 10:35:00,53.6,13.5,30.08,NNW,339,14.5,18.8,20,0.00,,CLR,0.00,VWS V14.01,2013-01-07 18:35:00,
2013-01-07 10:40:00,54.0,13.8,30.08,NW,312,13.2,15.9,20,0.00,,CLR,0.00,VWS V14.01,2013-01-07 18:40:00,
2013-01-07 10:45:00,54.5,14.3,30.08,NNW,331,17.0,17.4,20,0.00,,CLR,0.00,VWS V14.01,2013-01-07 18:45:00,
2013-01-07 10:50:00,54.7,14.4,30.05,WNW,291,19.7,21.9,20,0.00,,CLR,0.00,VWS V14.01,2013-01-07 18:50:00,
2013-01-07 10:55:00,54.9,14.6,30.05,NW,315,16.3,19.2,20,0.00,,CLR,0.00,VWS V14.01,2013-01-07 18:55:00,
2013-01-07 11:00:00,55.0,14.7,30.05,NW,305,21.0,21.0,20,0.00,,CLR,0.00,VWS V14.01,2013-01-07 19:00:00,
2013-01-07 11:05:00,55.2,14.9,30.05,NW,321,10.5,21.0,20,0.00,,CLR,0.00,VWS V14.01,2013-01-07 19:05:00,
2013-01-07 11:10:00,55.4,15.0,30.05,WNW,298,19.7,19.7,20,0.00,,CLR,0.00,VWS V14.01,2013-01-07 19:10:00,
2013-01-07 11:15:00,55.8,15.3,30.05,NW,321,13.6,15.4,20,0.00,,CLR,0.00,VWS V14.01,2013-01-07 19:15:00,
2013-01-07 11:20:00,55.9,15.5,30.05,WNW,291,15.9,21.5,20,0.00,,CLR,0.00,VWS V14.01,2013-01-07 19:20:00,
2013-01-07 11:25:00,56.3,15.8,30.05,NW,317,18.3,21.0,20,0.00,,CLR,0.00,VWS V14.01,2013-01-07 19:25:00,
2013-01-07 11:30:00,56.3,15.8,30.05,North,353,19.7,22.8,20,0.00,,CLR,0.00,VWS V14.01,2013-01-07 19:30:00,
2013-01-07 11:35:00,56.5,15.9,30.02,WNW,303,15.4,20.1,20,0.00,,CLR,0.00,VWS V14.01,2013-01-07 19:35:00,
2013-01-07 11:40:00,56.7,16.1,30.02,NNW,339,12.8,17.4,20,0.00,,CLR,0.00,VWS V14.01,2013-01-07 19:40:00,
2013-01-07 11:45:00,56.8,16.2,30.02,NNW,331,15.0,16.3,20,0.00,,CLR,0.00,VWS V14.01,2013-01-07 19:45:00,
2013-01-07 11:50:00,57.4,15.5,30.02,NW,320,13.6,22.4,19,0.00,,CLR,0.00,VWS V14.01,2013-01-07 19:50:00,
2013-01-07 11:55:00,57.6,15.6,30.02,WNW,285,19.7,21.0,19,0.00,,CLR,0.00,VWS V14.01,2013-01-07 19:55:00,
2013-01-07 12:00:00,57.7,15.8,30.02,WNW,292,15.4,19.7,19,0.00,,CLR,0.00,VWS V14.01,2013-01-07 20:00:00,
2013-01-07 12:05:00,58.1,16.1,30.02,NW,305,14.5,14.5,19,0.00,,CLR,0.00,VWS V14.01,2013-01-07 20:05:00,
2013-01-07 12:10:00,58.5,16.4,30.02,NW,312,17.0,17.0,19,0.00,,CLR,0.00,VWS V14.01,2013-01-07 20:10:00,
2013-01-07 12:15:00,58.8,16.7,30.02,NNW,333,13.6,19.7,19,0.00,,CLR,0.00,VWS V14.01,2013-01-07 20:15:00,
2013-01-07 12:19:00,58.8,16.7,30.02,NW,309,17.9,17.9,19,0.00,,CLR,0.00,VWS V14.01,2013-01-07 20:19:00,
2013-01-07 12:24:00,59.2,17.0,29.99,NW,307,12.3,13.2,19,0.00,,CLR,0.00,VWS V14.01,2013-01-07 20:24:00,
2013-01-07 12:29:00,59.4,17.1,29.99,NW,315,13.6,16.8,19,0.00,,CLR,0.00,VWS V14.01,2013-01-07 20:29:00,
2013-01-07 12:34:00,59.5,17.3,29.99,WNW,300,10.5,11.0,19,0.00,,CLR,0.00,VWS V14.01,2013-01-07 20:34:00,
2013-01-07 12:39:00,59.7,17.4,29.99,WNW,300,17.4,17.4,19,0.00,,CLR,0.00,VWS V14.01,2013-01-07 20:39:00,
2013-01-07 12:44:00,59.9,17.6,29.99,WNW,292,8.7,11.9,19,0.00,,CLR,0.00,VWS V14.01,2013-01-07 20:44:00,
2013-01-07 12:49:00,60.4,18.0,29.99,NW,304,16.3,16.3,19,0.00,,CLR,0.00,VWS V14.01,2013-01-07 20:49:00,
2013-01-07 12:54:00,60.6,18.2,29.99,NNW,331,12.8,12.8,19,0.00,,CLR,0.00,VWS V14.01,2013-01-07 20:54:00,
2013-01-07 12:59:00,61.0,18.5,29.99,WNW,299,15.9,17.4,19,0.00,,CLR,0.00,VWS V14.01,2013-01-07 20:59:00,
2013-01-07 13:04:00,60.8,18.3,29.99,North,349,8.1,13.2,19,0.00,,CLR,0.00,VWS V14.01,2013-01-07 21:04:00,
2013-01-07 13:09:00,61.0,18.5,29.99,WNW,290,13.6,13.6,19,0.00,,CLR,0.00,VWS V14.01,2013-01-07 21:09:00,
2013-01-07 13:14:00,61.2,18.6,29.99,NW,324,10.1,10.5,19,0.00,,CLR,0.00,VWS V14.01,2013-01-07 21:14:00,
2013-01-07 13:19:00,61.5,18.9,29.99,West,281,15.9,17.4,19,0.00,,CLR,0.00,VWS V14.01,2013-01-07 21:19:00,
2013-01-07 13:24:00,61.3,18.8,29.96,NW,310,12.8,15.4,19,0.00,,CLR,0.00,VWS V14.01,2013-01-07 21:24:00,
2013-01-07 13:29:00,61.5,18.9,29.96,WNW,300,12.8,12.8,19,0.00,,CLR,0.00,VWS V14.01,2013-01-07 21:29:00,
2013-01-07 13:34:00,61.5,18.9,29.96,WNW,298,8.1,11.4,19,0.00,,CLR,0.00,VWS V14.01,2013-01-07 21:34:00,
2013-01-07 13:39:00,61.5,18.9,29.99,WNW,299,12.8,13.2,19,0.00,,CLR,0.00,VWS V14.01,2013-01-07 21:39:00,
2013-01-07 13:44:00,61.7,19.0,29.99,NW,316,11.0,11.0,19,0.00,,CLR,0.00,VWS V14.01,2013-01-07 21:44:00,
2013-01-07 13:49:00,61.9,19.2,29.99,WNW,286,13.2,13.2,19,0.00,,CLR,0.00,VWS V14.01,2013-01-07 21:49:00,
2013-01-07 13:54:00,61.7,19.0,29.99,WNW,287,11.0,15.0,19,0.00,,CLR,0.00,VWS V14.01,2013-01-07 21:54:00,
2013-01-07 13:59:00,61.7,19.0,29.99,WNW,299,10.5,10.5,19,0.00,,CLR,0.00,VWS V14.01,2013-01-07 21:59:00,
2013-01-07 14:03:00,61.9,19.2,29.99,NW,322,12.3,15.0,19,0.00,,CLR,0.00,VWS V14.01,2013-01-07 22:03:00,
2013-01-07 14:08:00,61.9,19.2,29.96,West,280,15.9,15.9,19,0.00,,CLR,0.00,VWS V14.01,2013-01-07 22:08:00,
2013-01-07 14:13:00,61.9,19.2,29.96,WNW,292,12.8,15.4,19,0.00,,CLR,0.00,VWS V14.01,2013-01-07 22:13:00,
2013-01-07 14:18:00,61.9,19.2,29.96,WNW,303,11.0,11.0,19,0.00,,CLR,0.00,VWS V14.01,2013-01-07 22:18:00,
2013-01-07 14:23:00,62.1,19.3,29.96,NW,314,8.7,11.0,19,0.00,,CLR,0.00,VWS V14.01,2013-01-07 22:23:00,
2013-01-07 14:28:00,62.1,19.3,29.96,WNW,291,13.2,16.8,19,0.00,,CLR,0.00,VWS V14.01,2013-01-07 22:28:00,
2013-01-07 14:33:00,62.2,19.5,29.96,NW,310,11.0,13.2,19,0.00,,CLR,0.00,VWS V14.01,2013-01-07 22:33:00,
2013-01-07 14:38:00,62.4,19.6,29.96,NW,311,12.8,15.0,19,0.00,,CLR,0.00,VWS V14.01,2013-01-07 22:38:00,
2013-01-07 14:43:00,62.2,19.5,29.96,NW,307,11.9,15.0,19,0.00,,CLR,0.00,VWS V14.01,2013-01-07 22:43:00,
2013-01-07 14:48:00,61.7,19.0,29.96,NW,308,11.0,11.0,19,0.00,,CLR,0.00,VWS V14.01,2013-01-07 22:48:00,
2013-01-07 14:53:00,60.8,18.3,29.96,NW,308,15.0,15.4,19,0.00,,CLR,0.00,VWS V14.01,2013-01-07 22:53:00,
2013-01-07 14:58:00,60.8,18.3,29.96,NW,308,16.8,17.4,19,0.00,,CLR,0.00,VWS V14.01,2013-01-07 22:58:00,
2013-01-07 15:03:00,60.6,18.2,29.96,NNW,338,12.3,15.0,19,0.00,,CLR,0.00,VWS V14.01,2013-01-07 23:03:00,
2013-01-07 15:08:00,60.6,18.2,29.96,North,353,12.3,17.4,19,0.00,,CLR,0.00,VWS V14.01,2013-01-07 23:08:00,
2013-01-07 15:13:00,60.6,18.2,29.96,NW,325,11.9,15.4,19,0.00,,CLR,0.00,VWS V14.01,2013-01-07 23:13:00,
2013-01-07 15:18:00,60.6,18.2,29.96,NNW,331,15.0,15.4,19,0.00,,CLR,0.00,VWS V14.01,2013-01-07 23:18:00,
2013-01-07 15:23:00,60.6,18.2,29.96,NW,304,17.0,17.0,19,0.00,,CLR,0.00,VWS V14.01,2013-01-07 23:23:00,
2013-01-07 15:28:00,60.6,18.2,29.96,NNW,327,10.1,15.4,19,0.00,,CLR,0.00,VWS V14.01,2013-01-07 23:28:00,
2013-01-07 15:33:00,60.8,18.3,29.96,NW,309,13.2,13.2,19,0.00,,CLR,0.00,VWS V14.01,2013-01-07 23:33:00,
2013-01-07 15:38:00,61.0,18.5,29.99,NW,319,15.9,17.4,19,0.00,,CLR,0.00,VWS V14.01,2013-01-07 23:38:00,
2013-01-07 15:43:00,61.2,18.6,29.99,NW,320,8.3,17.4,19,0.00,,CLR,0.00,VWS V14.01,2013-01-07 23:43:00,
2013-01-07 15:48:00,61.2,18.6,29.99,NW,316,8.7,10.5,19,0.00,,CLR,0.00,VWS V14.01,2013-01-07 23:48:00,
2013-01-07 15:53:00,61.0,18.5,29.99,NNW,340,10.5,12.8,19,0.00,,CLR,0.00,VWS V14.01,2013-01-07 23:53:00,
2013-01-07 15:58:00,60.8,18.3,29.99,NW,312,12.8,15.4,19,0.00,,CLR,0.00,VWS V14.01,2013-01-07 23:58:00,
2013-01-07 16:03:00,60.6,18.2,29.99,NNW,332,11.0,17.4,19,0.00,,SCT250,0.00,VWS V14.01,2013-01-08 00:03:00,
2013-01-07 16:08:00,60.1,17.7,29.96,NW,326,11.0,15.0,19,0.00,,SCT250,0.00,VWS V14.01,2013-01-08 00:08:00,
2013-01-07 16:13:00,59.7,17.4,29.96,WNW,289,15.0,15.4,19,0.00,,SCT250,0.00,VWS V14.01,2013-01-08 00:13:00,
2013-01-07 16:18:00,59.0,16.8,29.96,NW,313,13.2,13.2,19,0.00,,SCT250,0.00,VWS V14.01,2013-01-08 00:18:00,
2013-01-07 16:23:00,58.5,16.4,29.96,WNW,296,10.5,15.4,19,0.00,,SCT250,0.00,VWS V14.01,2013-01-08 00:23:00,
2013-01-07 16:28:00,58.1,16.1,29.96,NW,315,18.8,18.8,19,0.00,,SCT250,0.00,VWS V14.01,2013-01-08 00:28:00,
2013-01-07 16:33:00,57.7,15.8,29.96,NW,311,15.0,15.4,19,0.00,,SCT250,0.00,VWS V14.01,2013-01-08 00:33:00,
2013-01-07 16:38:00,57.4,15.5,29.99,NNW,332,7.6,10.5,19,0.00,,SCT250,0.00,VWS V14.01,2013-01-08 00:38:00,
2013-01-07 16:43:00,56.7,16.1,29.99,NNW,332,5.4,10.1,20,0.00,,SCT250,0.00,VWS V14.01,2013-01-08 00:43:00,
2013-01-07 16:48:00,56.3,15.8,29.99,NW,311,6.3,10.5,20,0.00,,SCT250,0.00,VWS V14.01,2013-01-08 00:48:00,
2013-01-07 16:53:00,55.9,15.5,29.99,NNW,327,8.1,8.1,20,0.00,,SCT250,0.00,VWS V14.01,2013-01-08 00:53:00,
2013-01-07 16:58:00,55.6,15.2,29.99,NNW,341,4.0,4.9,20,0.00,,SCT250,0.00,VWS V14.01,2013-01-08 00:58:00,
2013-01-07 17:03:00,55.2,14.9,29.99,NW,320,10.5,11.0,20,0.00,,SCT250,0.00,VWS V14.01,2013-01-08 01:03:00,
2013-01-07 17:08:00,55.2,14.9,29.99,NW,324,4.5,8.3,20,0.00,,SCT250,0.00,VWS V14.01,2013-01-08 01:08:00,
2013-01-07 17:13:00,54.9,14.6,29.99,NNW,330,8.7,10.5,20,0.00,,SCT250,0.00,VWS V14.01,2013-01-08 01:13:00,
2013-01-07 17:18:00,54.9,14.6,29.99,NW,317,8.7,13.6,20,0.00,,SCT250,0.00,VWS V14.01,2013-01-08 01:18:00,
2013-01-07 17:23:00,55.0,14.7,29.99,NW,312,12.3,12.8,20,0.00,,SCT250,0.00,VWS V14.01,2013-01-08 01:23:00,
2013-01-07 17:28:00,55.2,14.9,29.99,NW,316,6.3,10.1,20,0.00,,SCT250,0.00,VWS V14.01,2013-01-08 01:28:00,
2013-01-07 17:33:00,55.0,14.7,29.99,North,353,8.7,8.7,20,0.00,,SCT250,0.00,VWS V14.01,2013-01-08 01:33:00,
2013-01-07 17:38:00,55.0,14.7,29.99,North,353,5.8,5.8,20,0.00,,SCT250,0.00,VWS V14.01,2013-01-08 01:38:00,
2013-01-07 17:43:00,54.9,14.6,29.99,NW,308,4.0,7.6,20,0.00,,SCT250,0.00,VWS V14.01,2013-01-08 01:43:00,
2013-01-07 17:48:00,54.5,14.3,29.99,NW,308,12.3,12.3,20,0.00,,SCT250,0.00,VWS V14.01,2013-01-08 01:48:00,
2013-01-07 17:53:00,54.3,14.1,29.99,NW,305,15.4,15.4,20,0.00,,SCT250,0.00,VWS V14.01,2013-01-08 01:53:00,
2013-01-07 17:58:00,54.7,14.4,29.99,NW,311,15.0,15.0,20,0.00,,SCT250,0.00,VWS V14.01,2013-01-08 01:58:00,
2013-01-07 18:03:00,55.0,14.7,29.99,NW,310,12.3,12.8,20,0.00,,SCT250,0.00,VWS V14.01,2013-01-08 02:03:00,
2013-01-07 18:08:00,55.2,14.9,29.99,NW,319,7.6,12.8,20,0.00,,SCT250,0.00,VWS V14.01,2013-01-08 02:08:00,
2013-01-07 18:13:00,55.2,14.9,29.99,NW,315,11.0,11.0,20,0.00,,SCT250,0.00,VWS V14.01,2013-01-08 02:13:00,
2013-01-07 18:18:00,54.3,14.1,29.99,NW,319,7.6,10.5,20,0.00,,SCT250,0.00,VWS V14.01,2013-01-08 02:18:00,
2013-01-07 18:23:00,53.8,13.7,29.99,WNW,296,8.3,9.6,20,0.00,,SCT250,0.00,VWS V14.01,2013-01-08 02:23:00,
2013-01-07 18:28:00,53.1,14.2,29.99,WNW,292,8.1,10.1,21,0.00,,SCT250,0.00,VWS V14.01,2013-01-08 02:28:00,
2013-01-07 18:33:00,52.9,14.0,29.99,WNW,299,9.6,10.5,21,0.00,,SCT250,0.00,VWS V14.01,2013-01-08 02:33:00,
2013-01-07 18:38:00,52.9,14.0,29.99,West,280,5.4,5.8,21,0.00,,SCT250,0.00,VWS V14.01,2013-01-08 02:38:00,
2013-01-07 18:43:00,52.0,13.3,29.99,WNW,300,7.6,8.3,21,0.00,,SCT250,0.00,VWS V14.01,2013-01-08 02:43:00,
2013-01-07 18:48:00,51.4,12.8,29.99,WNW,296,6.3,7.2,21,0.00,,SCT250,0.00,VWS V14.01,2013-01-08 02:48:00,
2013-01-07 18:53:00,50.7,12.2,29.99,WNW,294,8.7,8.7,21,0.00,,SCT250,0.00,VWS V14.01,2013-01-08 02:53:00,
2013-01-07 18:58:00,50.0,11.6,29.99,WNW,295,3.1,5.8,21,0.00,,SCT250,0.00,VWS V14.01,2013-01-08 02:58:00,
2013-01-07 19:03:00,49.5,11.2,29.99,WNW,294,5.8,5.8,21,0.00,,SCT250,0.00,VWS V14.01,2013-01-08 03:03:00,
2013-01-07 19:08:00,49.1,10.9,29.99,WNW,283,7.6,7.6,21,0.00,,SCT250,0.00,VWS V14.01,2013-01-08 03:08:00,
2013-01-07 19:13:00,48.9,10.7,29.99,WNW,282,5.4,5.8,21,0.00,,SCT250,0.00,VWS V14.01,2013-01-08 03:13:00,
2013-01-07 19:18:00,49.1,10.9,29.99,WNW,300,7.6,7.6,21,0.00,,SCT250,0.00,VWS V14.01,2013-01-08 03:18:00,
2013-01-07 19:23:00,49.3,11.0,29.99,NW,314,6.3,6.3,21,0.00,,SCT250,0.00,VWS V14.01,2013-01-08 03:23:00,
2013-01-07 19:28:00,49.3,11.0,29.99,WNW,301,4.9,4.9,21,0.00,,SCT250,0.00,VWS V14.01,2013-01-08 03:28:00,
2013-01-07 19:33:00,49.5,11.2,29.99,WNW,291,5.4,5.4,21,0.00,,SCT250,0.00,VWS V14.01,2013-01-08 03:33:00,
2013-01-07 19:38:00,49.8,11.5,29.99,WNW,288,10.5,10.5,21,0.00,,SCT250,0.00,VWS V14.01,2013-01-08 03:38:00,
2013-01-07 19:43:00,50.2,11.8,29.99,NW,310,14.5,14.5,21,0.00,,SCT250,0.00,VWS V14.01,2013-01-08 03:43:00,
2013-01-07 19:48:00,50.5,12.1,29.99,NW,307,17.9,17.9,21,0.00,,SCT250,0.00,VWS V14.01,2013-01-08 03:48:00,
2013-01-07 19:53:00,50.9,12.4,29.99,NW,319,20.1,20.1,21,0.00,,SCT250,0.00,VWS V14.01,2013-01-08 03:53:00,
2013-01-07 19:58:00,51.3,12.7,29.99,WNW,292,13.2,13.2,21,0.00,,SCT250,0.00,VWS V14.01,2013-01-08 03:58:00,
2013-01-07 20:03:00,51.4,12.8,29.99,WNW,299,13.6,19.7,21,0.00,,SCT250,0.00,VWS V14.01,2013-01-08 04:03:00,
2013-01-07 20:08:00,51.6,13.0,29.99,WNW,300,8.1,15.0,21,0.00,,SCT250,0.00,VWS V14.01,2013-01-08 04:08:00,
2013-01-07 20:13:00,51.4,12.8,29.99,WNW,302,15.0,15.0,21,0.00,,SCT250,0.00,VWS V14.01,2013-01-08 04:13:00,
2013-01-07 20:18:00,51.4,12.8,29.99,NW,323,13.2,17.0,21,0.00,,SCT250,0.00,VWS V14.01,2013-01-08 04:18:00,
2013-01-07 20:23:00,51.4,12.8,29.99,WNW,297,11.0,14.1,21,0.00,,SCT250,0.00,VWS V14.01,2013-01-08 04:23:00,
2013-01-07 20:28:00,51.6,13.0,29.99,NNW,336,16.8,20.1,21,0.00,,SCT250,0.00,VWS V14.01,2013-01-08 04:28:00,
2013-01-07 20:33:00,51.8,13.1,29.99,WNW,293,16.8,16.8,21,0.00,,SCT250,0.00,VWS V14.01,2013-01-08 04:33:00,
2013-01-07 20:38:00,52.0,13.3,29.99,WNW,293,16.8,16.8,21,0.00,,SCT250,0.00,VWS V14.01,2013-01-08 04:38:00,
2013-01-07 20:43:00,52.0,13.3,29.99,WNW,293,16.8,16.8,21,0.00,,SCT250,0.00,VWS V14.01,2013-01-08 04:43:00,
2013-01-07 20:48:00,52.0,13.3,29.99,WNW,293,16.8,16.8,21,0.00,,SCT250,0.00,VWS V14.01,2013-01-08 04:48:00,
2013-01-07 20:52:00,52.0,13.3,29.99,NNW,338,14.1,16.8,21,0.00,,SCT250,0.00,VWS V14.01,2013-01-08 04:52:00,
2013-01-07 20:57:00,51.6,13.0,29.99,NNW,327,17.4,17.4,21,0.00,,SCT250,0.00,VWS V14.01,2013-01-08 04:57:00,
2013-01-07 21:00:00,51.6,13.0,29.99,NNW,327,17.4,17.4,21,0.00,,SCT250,0.00,VWS V14.01,2013-01-08 05:00:00,
2013-01-07 21:02:00,51.3,12.7,29.99,NNW,327,17.4,17.4,21,0.00,,SCT250,0.00,VWS V14.01,2013-01-08 05:02:00,
2013-01-07 21:07:00,51.3,12.7,29.99,NNW,327,17.4,17.4,21,0.00,,SCT250,0.00,VWS V14.01,2013-01-08 05:07:00,
2013-01-07 21:12:00,51.8,13.1,29.99,NNW,327,17.4,17.4,21,0.00,,SCT250,0.00,VWS V14.01,2013-01-08 05:12:00,
2013-01-07 21:17:00,51.8,13.1,29.99,NNW,327,17.4,17.4,21,0.00,,SCT250,0.00,VWS V14.01,2013-01-08 05:17:00,
2013-01-07 21:22:00,51.8,13.1,29.99,NNW,327,17.4,17.4,21,0.00,,SCT250,0.00,VWS V14.01,2013-01-08 05:22:00,
2013-01-07 21:27:00,51.8,13.1,30.02,NNW,327,17.4,17.4,21,0.00,,SCT250,0.00,VWS V14.01,2013-01-08 05:27:00,
2013-01-07 21:32:00,51.8,13.1,30.02,NNW,327,17.4,17.4,21,0.00,,SCT250,0.00,VWS V14.01,2013-01-08 05:32:00,
2013-01-07 21:37:00,51.3,12.7,30.02,WNW,298,15.9,17.4,21,0.00,,SCT250,0.00,VWS V14.01,2013-01-08 05:37:00,
2013-01-07 21:42:00,51.3,12.7,30.02,WNW,298,15.9,15.9,21,0.00,,SCT250,0.00,VWS V14.01,2013-01-08 05:42:00,
2013-01-07 21:47:00,51.3,12.7,30.02,WNW,298,15.9,15.9,21,0.00,,SCT250,0.00,VWS V14.01,2013-01-08 05:47:00,
2013-01-07 21:52:00,51.3,12.7,30.02,WNW,298,15.9,15.9,21,0.00,,SCT250,0.00,VWS V14.01,2013-01-08 05:52:00,
2013-01-07 21:57:00,51.3,12.7,30.02,NW,325,14.5,15.9,21,0.00,,SCT250,0.00,VWS V14.01,2013-01-08 05:57:00,
2013-01-07 22:02:00,51.3,12.7,30.02,WNW,289,10.5,10.5,21,0.00,,SCT250,0.00,VWS V14.01,2013-01-08 06:02:00,
2013-01-07 22:07:00,51.3,12.7,30.02,WNW,289,10.5,10.5,21,0.00,,SCT250,0.00,VWS V14.01,2013-01-08 06:07:00,
2013-01-07 22:12:00,51.3,12.7,30.02,WNW,289,10.5,10.5,21,0.00,,SCT250,0.00,VWS V14.01,2013-01-08 06:12:00,
2013-01-07 22:17:00,51.3,12.7,30.02,WNW,289,10.5,10.5,21,0.00,,SCT250,0.00,VWS V14.01,2013-01-08 06:17:00,
2013-01-07 22:22:00,51.3,12.7,30.02,WNW,289,10.5,10.5,21,0.00,,SCT250,0.00,VWS V14.01,2013-01-08 06:22:00,
2013-01-07 22:27:00,51.3,12.7,30.02,NW,321,8.3,8.3,21,0.00,,SCT250,0.00,VWS V14.01,2013-01-08 06:27:00,
2013-01-07 22:32:00,49.3,11.0,30.02,NW,304,16.8,16.8,21,0.00,,SCT250,0.00,VWS V14.01,2013-01-08 06:32:00,
2013-01-07 22:37:00,49.3,11.0,30.02,NW,304,16.8,16.8,21,0.00,,SCT250,0.00,VWS V14.01,2013-01-08 06:37:00,
2013-01-07 22:42:00,49.3,11.0,30.02,WNW,303,15.0,15.0,21,0.00,,SCT250,0.00,VWS V14.01,2013-01-08 06:42:00,
2013-01-07 22:47:00,48.0,11.0,29.99,NW,312,4.0,4.0,22,0.00,,SCT250,0.00,VWS V14.01,2013-01-08 06:47:00,
2013-01-07 22:52:00,46.8,9.9,30.02,NW,306,6.7,6.7,22,0.00,,SCT250,0.00,VWS V14.01,2013-01-08 06:52:00,
2013-01-07 22:57:00,46.8,9.9,30.02,NW,319,7.6,8.1,22,0.00,,SCT250,0.00,VWS V14.01,2013-01-08 06:57:00,
2013-01-07 23:01:00,47.3,10.4,30.02,NW,311,8.3,8.3,22,0.00,,SCT250,0.00,VWS V14.01,2013-01-08 07:01:00,
2013-01-07 23:06:00,47.3,10.4,30.02,West,275,8.7,13.2,22,0.00,,SCT250,0.00,VWS V14.01,2013-01-08 07:06:00,
2013-01-07 23:11:00,47.7,10.7,30.02,WNW,297,8.7,8.7,22,0.00,,SCT250,0.00,VWS V14.01,2013-01-08 07:11:00,
2013-01-07 23:16:00,48.2,10.1,30.02,WNW,303,15.0,15.0,21,0.00,,SCT250,0.00,VWS V14.01,2013-01-08 07:16:00,
2013-01-07 23:21:00,48.4,10.3,30.02,WNW,290,12.8,13.2,21,0.00,,SCT250,0.00,VWS V14.01,2013-01-08 07:21:00,
2013-01-07 23:26:00,48.2,10.1,30.02,WNW,283,14.1,14.1,21,0.00,,SCT250,0.00,VWS V14.01,2013-01-08 07:26:00,
2013-01-07 23:31:00,48.0,11.0,30.02,NW,304,15.4,17.4,22,0.00,,SCT250,0.00,VWS V14.01,2013-01-08 07:31:00,
2013-01-07 23:36:00,48.2,10.1,30.02,West,281,19.2,19.2,21,0.00,,SCT250,0.00,VWS V14.01,2013-01-08 07:36:00,
2013-01-07 23:41:00,48.0,11.0,30.02,NW,308,15.4,19.2,22,0.00,,SCT250,0.00,VWS V14.01,2013-01-08 07:41:00,
2013-01-07 23:46:00,47.7,10.7,30.02,West,278,15.9,20.1,22,0.00,,SCT250,0.00,VWS V14.01,2013-01-08 07:46:00,
2013-01-07 23:51:00,47.3,10.4,30.02,WNW,297,14.5,17.9,22,0.00,,SCT250,0.00,VWS V14.01,2013-01-08 07:51:00,
2013-01-07 23:56:00,47.3,10.4,30.02,NW,317,16.8,16.8,22,0.00,,SCT250,0.00,VWS V14.01,2013-01-08 07:56:00,